Needham, MA (02494)

4:42 AM EDT on September 01, 2015 (GMT -0400)
Needham Heights | | Change Station
CLOSE
Current Station
Personal Weather Station
Location: Needham, MA
Elevation: 190 ft
Nearby Weather Stations

Elev 190 ft 42.30 °N, 71.24 °W | Updated 14 minutes ago

Partly Cloudy
Partly Cloudy
68.9 °F
Feels Like 68.9 °F
N
0.0
Wind Variable Wind from West

Today
High -- | Low -- °F
--% Chance of Precip.
Yesterday
High -- | Low -- °F
Precip. -- in
6:09 AM 7:19 PM
Waning Gibbous, 90% visible
Pressure 29.98 in
Visibility 1.5 miles
Clouds Scattered Clouds 200 ft
Dew Point 62 °F
Humidity 78%
Rainfall 0.00 in
Snow Depth Not available.
UV 0 out of 12
Pollen 10.80 out of 12
Air Quality Not available.
Flu Activity Not available.
SPECI KOWD 010836Z AUTO 00000KT 1 1/2SM BR SCT002 15/14 A2998 RMK AO2 T01500144
Pressure 29.98 in
Visibility 1.5 miles
Clouds Scattered Clouds 200 ft
Dew Point 62 °F
Humidity 78%
Rainfall 0.00 in
Snow Depth Not available.
UV 0 out of 12
Pollen 10.80 out of 12
Air Quality Not available.
Flu Activity Not available.
SPECI KOWD 010836Z AUTO 00000KT 1 1/2SM BR SCT002 15/14 A2998 RMK AO2 T01500144

10-Day Weather Forecast

×

Almanac

Astronomy

Sep. 01, 2015 Rise Set
Actual Time
Civil Twilight
Nautical Twilight
Astronomical Twilight
Moon
Length of Visible Light
Length of Day
Tomorrow will be .
, % of the Moon is Illuminated

Today's Extremes

State Highs State Lows

Community

WunderPhotos

Upload Photos

1,851,490 photos uploaded!

WunderBlogs® & News

Nearby

Air Quality

  Air Quality AQ Index Pollutant
Not available.

Snow Depth

Station Depth Elevation

Earthquake Activity

City Distance Mag. Time & Date
Minimum magnitude displayed is 2.5.

Coastal Water Temperatures

Place Temperature

Stations

Nearby Weather Stations

Station Location Temp. Windchill Dew Point Humidity Wind Precip. Elev Updated Type